Time;durP1;ratioP1;P1;durP2;ratioP2;P2;SDS_P1;SDS_P2;PMS_P1;PMS_P2;Temp;Humidity;BMP_temperature;BMP_pressure;BME280_temperature;BME280_humidity;BME280_pressure;Samples;Min_cycle;Max_cycle;Signal;HPM_P1;HPM_P2
2023/06/22 00:01:14;;;;;;;1.17;1.05;;;18.70;99.90;;;;;;5003134;28;20060;-77
2023/06/22 00:03:41;;;;;;;1.60;1.10;;;18.70;99.90;;;;;;4987934;28;20042;-77
2023/06/22 00:06:07;;;;;;;1.50;1.00;;;18.60;99.90;;;;;;4971998;28;20064;-76
2023/06/22 00:08:34;;;;;;;1.40;1.08;;;18.50;99.90;;;;;;4988103;28;20054;-76
2023/06/22 00:11:01;;;;;;;1.40;1.25;;;18.40;99.90;;;;;;5004880;28;20061;-76
2023/06/22 00:13:28;;;;;;;1.70;1.20;;;18.40;99.90;;;;;;5004347;28;20478;-76
2023/06/22 00:15:54;;;;;;;1.77;1.42;;;18.40;99.90;;;;;;4987087;28;20133;-76
2023/06/22 00:18:21;;;;;;;1.08;0.90;;;18.30;99.90;;;;;;5005351;28;20054;-76
2023/06/22 00:20:48;;;;;;;1.40;1.00;;;18.30;99.90;;;;;;5003771;28;20279;-76
2023/06/22 00:23:15;;;;;;;1.33;0.98;;;18.20;99.90;;;;;;5004569;28;20080;-76
2023/06/22 00:25:42;;;;;;;1.27;1.00;;;18.20;99.90;;;;;;5004352;28;20096;-76
2023/06/22 00:28:09;;;;;;;1.27;1.00;;;18.20;99.90;;;;;;4987457;28;20049;-76
2023/06/22 00:30:36;;;;;;;1.95;1.13;;;18.10;99.90;;;;;;5003964;28;20138;-76
2023/06/22 00:33:03;;;;;;;1.50;1.30;;;18.00;99.90;;;;;;5002231;28;20104;-76
2023/06/22 00:35:30;;;;;;;2.55;1.73;;;18.00;99.90;;;;;;5003552;28;20061;-77
2023/06/22 00:38:00;;;;;;;1.40;1.10;;;17.90;99.90;;;;;;4986647;28;20152;-75
2023/06/22 00:40:28;;;;;;;1.00;0.88;;;17.90;99.90;;;;;;4971472;28;20063;-76
2023/06/22 00:42:55;;;;;;;1.35;1.25;;;17.80;99.90;;;;;;4971461;28;20175;-76
2023/06/22 00:45:23;;;;;;;1.52;1.15;;;17.70;99.90;;;;;;5002888;28;20050;-76
2023/06/22 00:47:54;;;;;;;1.67;1.38;;;17.70;99.90;;;;;;4970938;28;20132;-76
2023/06/22 00:50:21;;;;;;;1.35;1.02;;;17.70;99.90;;;;;;4971318;28;20563;-76
2023/06/22 00:52:56;;;;;;;1.30;0.90;;;17.70;99.90;;;;;;4970745;28;20065;-76
2023/06/22 00:55:23;;;;;;;1.48;1.33;;;17.70;99.90;;;;;;4971826;28;20153;-76
2023/06/22 00:57:49;;;;;;;1.27;1.05;;;17.60;99.90;;;;;;4987085;28;20616;-76
2023/06/22 01:00:18;;;;;;;1.40;1.10;;;17.60;99.90;;;;;;5003306;28;20042;-77
2023/06/22 01:02:45;;;;;;;1.40;1.10;;;17.50;99.90;;;;;;4984826;28;20145;-76
2023/06/22 01:05:15;;;;;;;1.70;1.20;;;17.50;99.90;;;;;;4999703;28;20556;-75
2023/06/22 01:08:04;;;;;;;1.60;1.27;;;17.40;99.90;;;;;;4984501;28;20112;-76
2023/06/22 01:10:54;;;;;;;1.92;1.23;;;17.30;99.90;;;;;;5002356;28;20513;-76
2023/06/22 01:13:37;;;;;;;1.30;1.15;;;17.20;99.90;;;;;;5002922;28;20058;-76
2023/06/22 01:16:09;;;;;;;;;;;17.20;99.90;;;;;;4987801;28;20518;-76
2023/06/22 01:18:36;;;;;;;1.13;0.93;;;17.20;99.90;;;;;;5002904;28;19972;-76
2023/06/22 01:21:08;;;;;;;1.20;0.98;;;17.20;99.90;;;;;;4986765;28;20100;-77
2023/06/22 01:23:42;;;;;;;1.55;1.27;;;17.20;99.90;;;;;;4970789;28;20053;-77
2023/06/22 01:26:51;;;;;;;1.40;1.10;;;17.20;99.90;;;;;;5002638;28;20570;-76
2023/06/22 01:29:17;;;;;;;1.13;0.95;;;17.10;99.90;;;;;;5003879;28;20054;-77
2023/06/22 01:31:44;;;;;;;1.20;1.10;;;17.10;99.90;;;;;;4982765;28;20054;-77
2023/06/22 01:34:12;;;;;;;1.73;1.30;;;17.10;99.90;;;;;;4983110;28;20051;-76
2023/06/22 01:36:39;;;;;;;1.60;1.25;;;17.10;99.90;;;;;;4966722;28;20391;-77
2023/06/22 01:39:06;;;;;;;1.73;1.30;;;17.10;99.90;;;;;;4992565;28;20049;-78
2023/06/22 01:41:35;;;;;;;1.27;1.17;;;17.10;99.90;;;;;;4989395;28;20454;-76
2023/06/22 01:44:05;;;;;;;1.45;1.10;;;17.00;99.90;;;;;;5001712;28;20046;-77
2023/06/22 01:46:32;;;;;;;1.42;1.17;;;17.00;99.90;;;;;;4976730;28;20058;-77
2023/06/22 01:48:58;;;;;;;1.50;1.30;;;17.00;99.90;;;;;;4969053;28;20046;-76
2023/06/22 01:51:25;;;;;;;1.65;1.38;;;17.00;99.90;;;;;;4969114;28;20113;-76
2023/06/22 01:53:52;;;;;;;1.77;1.40;;;17.00;99.90;;;;;;4999193;28;20141;-76
2023/06/22 01:56:19;;;;;;;1.25;1.15;;;16.90;99.90;;;;;;5004187;28;20111;-77
2023/06/22 01:59:00;;;;;;;1.20;1.00;;;16.80;99.90;;;;;;5005997;28;20617;-77
2023/06/22 02:01:39;;;;;;;1.88;1.20;;;16.80;99.90;;;;;;5003418;28;20208;-77
2023/06/22 02:04:08;;;;;;;1.52;1.15;;;16.70;99.90;;;;;;4988703;28;20046;-77
2023/06/22 02:06:38;;;;;;;1.17;1.00;;;16.70;99.90;;;;;;5003717;28;20049;-76
2023/06/22 02:09:08;;;;;;;2.03;1.23;;;16.60;99.90;;;;;;5004246;28;20049;-77
2023/06/22 02:11:36;;;;;;;2.05;1.30;;;16.60;99.90;;;;;;5003967;28;20050;-77
2023/06/22 02:14:02;;;;;;;1.30;1.10;;;16.60;99.90;;;;;;5004580;28;20108;-76
2023/06/22 02:16:30;;;;;;;1.70;1.20;;;16.60;99.90;;;;;;5003868;28;20050;-78
2023/06/22 02:19:02;;;;;;;1.60;1.40;;;16.70;99.90;;;;;;5004046;28;20050;-78
2023/06/22 02:21:30;;;;;;;2.10;1.27;;;16.70;99.90;;;;;;5004718;28;20132;-78
2023/06/22 02:23:58;;;;;;;2.83;1.33;;;16.60;99.90;;;;;;4988048;28;20750;-78
2023/06/22 02:26:25;;;;;;;2.08;1.40;;;16.60;99.90;;;;;;5003509;28;20099;-78
2023/06/22 02:28:52;;;;;;;1.83;1.42;;;16.50;99.90;;;;;;5004502;28;20045;-77
2023/06/22 02:31:20;;;;;;;2.20;1.50;;;16.40;99.90;;;;;;4987234;28;20054;-78
2023/06/22 02:33:48;;;;;;;1.48;1.30;;;16.40;99.90;;;;;;5003898;28;20104;-77
2023/06/22 02:36:15;;;;;;;1.63;1.20;;;16.40;99.90;;;;;;5004545;28;20532;-78
2023/06/22 02:38:47;;;;;;;1.55;1.13;;;16.40;99.90;;;;;;4987301;28;20123;-78
2023/06/22 02:41:18;;;;;;;1.30;1.15;;;16.40;99.90;;;;;;5004061;28;20054;-77
2023/06/22 02:43:45;;;;;;;1.42;1.15;;;16.40;99.90;;;;;;4988398;28;20056;-77
2023/06/22 02:46:13;;;;;;;1.45;1.30;;;16.40;99.90;;;;;;5003755;28;20050;-78
2023/06/22 02:48:40;;;;;;;1.60;1.20;;;16.30;99.90;;;;;;5004171;28;20116;-77
2023/06/22 02:51:07;;;;;;;1.50;1.20;;;16.30;99.90;;;;;;5005808;28;20124;-78
2023/06/22 02:53:34;;;;;;;1.55;1.20;;;16.20;99.90;;;;;;5003991;28;20056;-78
2023/06/22 02:56:07;;;;;;;1.20;1.10;;;16.20;99.90;;;;;;4987805;28;20108;-77
2023/06/22 02:58:38;;;;;;;;;;;16.10;99.90;;;;;;5008175;28;20673;-77
2023/06/22 03:01:09;;;;;;;1.23;1.13;;;16.00;99.90;;;;;;5007125;28;19925;-77
2023/06/22 03:03:36;;;;;;;1.33;1.23;;;16.00;99.90;;;;;;5007982;28;20050;-77
2023/06/22 03:06:04;;;;;;;1.20;1.10;;;15.90;99.90;;;;;;4992003;28;20046;-77
2023/06/22 03:08:30;;;;;;;1.30;1.20;;;15.90;99.90;;;;;;5006976;28;20081;-77
2023/06/22 03:10:57;;;;;;;1.42;1.13;;;15.90;99.90;;;;;;4991055;28;20092;-77
2023/06/22 03:13:24;;;;;;;1.80;1.23;;;15.90;99.90;;;;;;4991497;28;20076;-77
2023/06/22 03:15:51;;;;;;;1.20;1.10;;;15.80;99.90;;;;;;5006893;28;20073;-77
2023/06/22 03:18:17;;;;;;;1.52;1.30;;;15.80;99.90;;;;;;5007628;28;20073;-78
2023/06/22 03:20:44;;;;;;;1.70;1.50;;;15.80;99.90;;;;;;4991416;28;20077;-78
2023/06/22 03:23:11;;;;;;;1.20;1.10;;;15.90;99.90;;;;;;5006804;28;20057;-78
2023/06/22 03:25:38;;;;;;;1.73;1.27;;;15.90;99.90;;;;;;5008712;28;20050;-77
2023/06/22 03:28:04;;;;;;;1.58;1.15;;;15.90;99.90;;;;;;5007569;28;20096;-78
2023/06/22 03:30:31;;;;;;;2.35;1.30;;;15.90;99.90;;;;;;5007582;28;20196;-77
2023/06/22 03:32:58;;;;;;;1.73;1.27;;;15.90;99.90;;;;;;4990380;28;20469;-76
2023/06/22 03:35:25;;;;;;;1.40;1.30;;;15.90;99.90;;;;;;5006890;28;20073;-76
2023/06/22 03:37:52;;;;;;;1.55;1.15;;;15.90;99.90;;;;;;5006709;28;20073;-77
2023/06/22 03:40:19;;;;;;;1.70;1.55;;;15.80;99.90;;;;;;5006384;28;20084;-76
2023/06/22 03:42:46;;;;;;;2.13;1.30;;;15.90;99.90;;;;;;5006958;28;20046;-77
2023/06/22 03:45:12;;;;;;;1.55;1.30;;;15.80;99.90;;;;;;5006949;28;20860;-77
2023/06/22 03:47:39;;;;;;;1.33;1.20;;;15.80;99.90;;;;;;5006558;28;20054;-76
2023/06/22 03:50:06;;;;;;;2.08;1.65;;;15.70;99.90;;;;;;5007296;28;20690;-76
2023/06/22 03:52:33;;;;;;;1.58;1.17;;;15.70;99.90;;;;;;5006516;28;20119;-76
2023/06/22 03:55:00;;;;;;;2.72;1.60;;;15.70;99.90;;;;;;5006484;28;20645;-76
2023/06/22 03:57:27;;;;;;;2.20;1.80;;;15.70;99.90;;;;;;5006764;28;20080;-76
2023/06/22 03:59:56;;;;;;;1.33;1.23;;;15.70;99.90;;;;;;5006657;28;20050;-76
2023/06/22 04:02:23;;;;;;;2.10;1.40;;;15.70;99.90;;;;;;4989471;28;20057;-76
2023/06/22 04:04:50;;;;;;;2.28;1.50;;;15.60;99.90;;;;;;5007836;28;20065;-77
2023/06/22 04:07:17;;;;;;;1.70;1.48;;;15.70;99.90;;;;;;4989709;28;20049;-77
2023/06/22 04:09:44;;;;;;;1.40;0.98;;;15.70;99.90;;;;;;5008168;28;20552;-77
2023/06/22 04:12:11;;;;;;;1.83;1.50;;;15.70;99.90;;;;;;5005887;28;20405;-77
2023/06/22 04:14:38;;;;;;;1.98;1.40;;;15.70;99.90;;;;;;5006070;28;20092;-76
2023/06/22 04:17:04;;;;;;;1.33;1.23;;;15.70;99.90;;;;;;4989068;28;20050;-77
2023/06/22 04:19:31;;;;;;;1.50;1.20;;;15.70;99.90;;;;;;5006694;28;20050;-77
2023/06/22 04:21:58;;;;;;;1.65;1.38;;;15.70;99.90;;;;;;5006728;28;20046;-76
2023/06/22 04:24:25;;;;;;;1.90;1.60;;;15.60;99.90;;;;;;5006438;28;20053;-77
2023/06/22 04:26:54;;;;;;;1.67;1.38;;;15.60;99.90;;;;;;5005543;28;20088;-77
2023/06/22 04:29:28;;;;;;;1.90;1.50;;;15.60;99.90;;;;;;5006331;28;20115;-77
2023/06/22 04:31:58;;;;;;;1.38;1.20;;;15.60;99.90;;;;;;4989879;28;20129;-77
2023/06/22 04:34:28;;;;;;;1.23;1.13;;;15.60;99.90;;;;;;5006348;28;20087;-77
2023/06/22 04:36:54;;;;;;;1.30;1.10;;;15.70;99.90;;;;;;5006826;28;20053;-77
2023/06/22 04:39:21;;;;;;;2.00;1.30;;;15.80;99.90;;;;;;5006878;28;20776;-77
2023/06/22 04:41:48;;;;;;;1.70;1.35;;;15.90;99.90;;;;;;5004288;28;20042;-77
2023/06/22 04:44:24;;;;;;;1.45;1.20;;;15.90;99.90;;;;;;4999904;28;20046;-75
2023/06/22 04:46:59;;;;;;;1.50;1.35;;;16.00;99.90;;;;;;4972419;28;20129;-77
2023/06/22 04:49:33;;;;;;;1.88;1.45;;;16.10;99.90;;;;;;4999461;28;20160;-76
2023/06/22 04:52:00;;;;;;;;;;;16.10;99.90;;;;;;5003039;28;20153;-76
2023/06/22 04:54:27;;;;;;;1.60;1.33;;;16.20;99.90;;;;;;5003857;28;19921;-77
2023/06/22 04:56:56;;;;;;;1.52;1.10;;;16.20;99.90;;;;;;5003393;28;20054;-76
2023/06/22 04:59:27;;;;;;;1.92;1.50;;;16.30;99.90;;;;;;5003412;28;20096;-76
2023/06/22 05:01:58;;;;;;;1.50;1.30;;;16.30;99.90;;;;;;4995057;28;20053;-77
2023/06/22 05:04:26;;;;;;;1.38;1.17;;;16.40;99.90;;;;;;4996054;28;20057;-78
2023/06/22 05:06:54;;;;;;;1.83;1.40;;;16.40;99.90;;;;;;4978489;28;20046;-78
2023/06/22 05:09:22;;;;;;;3.80;1.90;;;16.50;99.90;;;;;;5000855;28;20060;-78
2023/06/22 05:11:49;;;;;;;1.75;1.40;;;16.50;99.90;;;;;;4985118;28;20129;-78
2023/06/22 05:14:16;;;;;;;2.33;1.67;;;16.50;99.90;;;;;;4999029;28;20048;-77
2023/06/22 05:16:43;;;;;;;1.90;1.63;;;16.70;99.90;;;;;;4993268;28;20432;-78
2023/06/22 05:19:09;;;;;;;1.80;1.40;;;16.70;99.90;;;;;;4995780;28;20095;-78
2023/06/22 05:21:36;;;;;;;2.00;1.80;;;16.80;99.90;;;;;;4983583;28;20133;-78
2023/06/22 05:24:03;;;;;;;2.10;1.67;;;16.90;99.90;;;;;;4985999;28;20166;-78
2023/06/22 05:26:31;;;;;;;2.28;1.60;;;16.90;99.90;;;;;;4995703;28;20570;-78
2023/06/22 05:28:58;;;;;;;1.30;1.20;;;17.10;99.90;;;;;;4993541;28;20551;-78
2023/06/22 05:31:25;;;;;;;1.83;1.65;;;17.20;99.90;;;;;;4997915;28;20739;-78
2023/06/22 05:33:52;;;;;;;1.60;1.50;;;17.30;99.90;;;;;;4998786;28;20140;-78
2023/06/22 05:36:19;;;;;;;1.58;1.45;;;17.40;99.90;;;;;;4972843;28;20053;-77
2023/06/22 05:38:46;;;;;;;1.77;1.40;;;17.50;99.90;;;;;;5006406;28;20537;-77
2023/06/22 05:41:13;;;;;;;1.38;1.20;;;17.50;99.90;;;;;;5014904;28;20057;-78
2023/06/22 05:43:40;;;;;;;1.60;1.33;;;17.60;99.90;;;;;;5001539;28;20077;-77
2023/06/22 05:46:07;;;;;;;1.67;1.40;;;17.60;99.90;;;;;;5000494;28;20627;-78
2023/06/22 05:48:34;;;;;;;1.63;1.50;;;17.70;99.90;;;;;;4980431;28;20050;-77
2023/06/22 05:51:01;;;;;;;1.73;1.42;;;17.80;99.90;;;;;;5000020;28;20081;-78
2023/06/22 05:53:28;;;;;;;2.13;1.70;;;17.80;99.90;;;;;;5000247;28;20161;-78
2023/06/22 05:55:55;;;;;;;1.83;1.50;;;17.80;99.90;;;;;;4999079;28;20049;-78
2023/06/22 05:58:21;;;;;;;1.88;1.50;;;17.80;99.90;;;;;;4976228;28;20069;-79
2023/06/22 06:00:48;;;;;;;2.17;1.40;;;17.90;99.90;;;;;;4999097;28;20054;-78
2023/06/22 06:03:16;;;;;;;2.90;1.55;;;18.00;99.90;;;;;;4996805;28;20042;-79
2023/06/22 06:05:44;;;;;;;2.00;1.40;;;18.10;99.90;;;;;;4984466;28;20054;-77
2023/06/22 06:08:12;;;;;;;1.70;1.50;;;18.20;99.90;;;;;;4988531;28;20041;-76
2023/06/22 06:10:39;;;;;;;1.70;1.30;;;18.20;99.90;;;;;;4969139;28;20069;-76
2023/06/22 06:13:06;;;;;;;2.33;1.58;;;18.20;99.90;;;;;;4998668;28;20049;-76
2023/06/22 06:15:33;;;;;;;1.90;1.30;;;18.40;99.90;;;;;;5001607;28;20847;-76
2023/06/22 06:18:01;;;;;;;2.03;1.67;;;18.40;99.90;;;;;;5000707;28;20431;-77
2023/06/22 06:20:28;;;;;;;2.30;1.65;;;18.40;99.90;;;;;;4981095;28;20875;-76
2023/06/22 06:22:56;;;;;;;2.83;1.40;;;18.40;99.90;;;;;;4989102;28;20050;-76
2023/06/22 06:25:23;;;;;;;2.00;1.65;;;18.40;99.90;;;;;;4998533;28;20057;-76
2023/06/22 06:27:50;;;;;;;1.83;1.23;;;18.50;99.90;;;;;;4998836;28;20046;-76
2023/06/22 06:30:18;;;;;;;1.70;1.60;;;18.50;99.90;;;;;;4983548;28;20401;-76
2023/06/22 06:32:45;;;;;;;3.22;1.73;;;18.50;99.90;;;;;;5004830;28;20128;-76
2023/06/22 06:35:14;;;;;;;2.03;1.70;;;18.50;99.90;;;;;;4989708;28;20500;-77
2023/06/22 06:37:43;;;;;;;2.05;1.85;;;18.60;99.90;;;;;;5002419;28;20152;-77
2023/06/22 06:40:11;;;;;;;2.15;1.80;;;18.60;99.90;;;;;;4986330;28;20093;-77
2023/06/22 06:42:40;;;;;;;2.22;1.80;;;18.70;99.90;;;;;;5002487;28;20053;-76
2023/06/22 06:45:18;;;;;;;2.03;1.75;;;18.70;99.90;;;;;;4986561;28;20046;-76
2023/06/22 06:47:45;;;;;;;3.33;1.77;;;18.90;99.90;;;;;;4982096;28;20101;-76
2023/06/22 06:50:12;;;;;;;1.95;1.75;;;18.90;99.90;;;;;;4996747;28;20748;-77
2023/06/22 06:52:39;;;;;;;2.35;2.08;;;18.90;99.90;;;;;;5004599;28;20057;-76
2023/06/22 06:55:10;;;;;;;2.08;1.88;;;18.90;99.90;;;;;;5005514;28;20509;-76
2023/06/22 06:57:37;;;;;;;2.15;1.85;;;18.90;99.90;;;;;;5006036;28;20061;-76
2023/06/22 07:00:13;;;;;;;3.30;1.90;;;19.00;99.90;;;;;;5007048;28;20054;-77
2023/06/22 07:02:44;;;;;;;2.22;2.03;;;19.10;99.90;;;;;;5001909;28;20497;-76
2023/06/22 07:05:11;;;;;;;2.33;1.90;;;19.20;99.90;;;;;;5001905;28;20137;-76
2023/06/22 07:07:38;;;;;;;3.03;2.35;;;19.20;99.90;;;;;;5002519;28;20049;-76
2023/06/22 07:10:06;;;;;;;2.30;1.90;;;19.20;99.90;;;;;;4985021;28;20076;-76
2023/06/22 07:12:33;;;;;;;2.40;2.10;;;19.20;99.90;;;;;;4987053;28;20089;-76
2023/06/22 07:15:08;;;;;;;2.78;1.83;;;19.20;99.90;;;;;;5006792;28;20057;-76
2023/06/22 07:17:35;;;;;;;2.53;1.92;;;19.20;99.90;;;;;;4972821;28;20058;-77
2023/06/22 07:20:08;;;;;;;2.42;2.15;;;19.20;99.90;;;;;;4973352;28;20113;-77
2023/06/22 07:22:35;;;;;;;2.15;1.85;;;19.30;99.90;;;;;;4989148;28;20065;-76
2023/06/22 07:25:08;;;;;;;1.75;1.60;;;19.30;99.90;;;;;;5004695;28;20057;-76
2023/06/22 07:27:37;;;;;;;2.38;1.80;;;19.30;99.90;;;;;;5004997;28;20046;-76
2023/06/22 07:30:05;;;;;;;2.00;1.83;;;19.30;99.90;;;;;;4988842;28;20089;-76
2023/06/22 07:32:32;;;;;;;2.75;1.90;;;19.30;99.90;;;;;;4987513;28;20070;-77
2023/06/22 07:34:59;;;;;;;1.92;1.63;;;19.30;99.90;;;;;;5004892;28;20045;-77
2023/06/22 07:37:27;;;;;;;2.15;1.77;;;19.30;99.90;;;;;;5005942;28;20050;-76
2023/06/22 07:39:58;;;;;;;2.40;1.95;;;19.40;99.90;;;;;;5004478;28;20149;-77
2023/06/22 07:42:25;;;;;;;3.75;2.20;;;19.50;99.90;;;;;;5003927;28;20121;-76
2023/06/22 07:44:53;;;;;;;2.67;2.20;;;19.50;99.90;;;;;;5004267;28;20057;-76
2023/06/22 07:47:19;;;;;;;2.92;2.20;;;19.60;99.90;;;;;;5004093;28;20042;-76
2023/06/22 07:49:46;;;;;;;3.25;2.00;;;19.70;99.90;;;;;;5004937;28;20054;-76
2023/06/22 07:52:13;;;;;;;3.78;2.00;;;19.80;99.90;;;;;;5003250;28;20058;-76
2023/06/22 07:54:40;;;;;;;2.42;2.22;;;19.80;99.90;;;;;;5004993;28;20050;-76
2023/06/22 07:57:07;;;;;;;2.35;2.03;;;19.90;99.90;;;;;;5004327;28;20126;-76
2023/06/22 07:59:34;;;;;;;2.50;2.15;;;19.80;99.90;;;;;;5004292;28;20064;-76
2023/06/22 08:02:03;;;;;;;2.25;2.00;;;19.90;99.90;;;;;;5002405;28;20107;-77
2023/06/22 08:04:31;;;;;;;3.30;2.30;;;19.90;99.90;;;;;;4985487;28;20054;-76
2023/06/22 08:06:58;;;;;;;2.40;2.03;;;19.90;99.90;;;;;;4983339;28;20050;-76
2023/06/22 08:09:25;;;;;;;2.35;1.90;;;20.00;99.90;;;;;;5004706;28;20061;-76
2023/06/22 08:11:52;;;;;;;2.42;1.90;;;20.00;99.90;;;;;;5005435;28;20066;-77
2023/06/22 08:14:18;;;;;;;1.88;1.63;;;20.10;99.90;;;;;;5005529;28;20136;-77
2023/06/22 08:16:45;;;;;;;2.20;1.73;;;20.30;99.90;;;;;;5003373;28;20124;-77
2023/06/22 08:19:12;;;;;;;1.50;1.38;;;20.30;99.90;;;;;;5005117;28;20053;-77
2023/06/22 08:21:39;;;;;;;2.22;1.85;;;20.40;99.90;;;;;;4987579;28;20049;-77
2023/06/22 08:24:07;;;;;;;1.70;1.60;;;20.40;99.90;;;;;;5003908;28;20050;-77
2023/06/22 08:26:36;;;;;;;2.05;1.75;;;20.50;99.90;;;;;;5003025;28;20135;-77
2023/06/22 08:29:03;;;;;;;2.05;1.45;;;20.60;99.90;;;;;;4988269;28;20501;-77
2023/06/22 08:31:31;;;;;;;1.85;1.67;;;20.70;99.90;;;;;;4970827;28;20058;-77
2023/06/22 08:33:59;;;;;;;3.10;1.70;;;20.70;99.90;;;;;;4987201;28;20592;-77
2023/06/22 08:36:28;;;;;;;2.30;1.83;;;20.70;99.90;;;;;;5003526;28;20505;-77
2023/06/22 08:39:01;;;;;;;2.65;1.98;;;20.80;99.90;;;;;;5003077;28;20053;-77
2023/06/22 08:41:28;;;;;;;2.30;1.60;;;20.90;99.90;;;;;;5002973;28;20065;-77
2023/06/22 08:43:55;;;;;;;2.47;1.92;;;20.90;99.90;;;;;;5003577;28;20835;-77
2023/06/22 08:46:24;;;;;;;2.75;2.22;;;21.10;99.90;;;;;;5004174;28;20061;-77
2023/06/22 08:48:51;;;;;;;3.67;2.35;;;21.20;99.90;;;;;;5004661;28;20049;-76
2023/06/22 08:51:18;;;;;;;2.65;2.13;;;21.30;99.90;;;;;;5002781;28;20650;-77
2023/06/22 08:53:45;;;;;;;2.15;1.75;;;21.30;99.90;;;;;;5002253;28;20057;-77
2023/06/22 08:56:11;;;;;;;2.00;1.80;;;21.40;99.90;;;;;;5000351;28;20507;-77
2023/06/22 08:58:38;;;;;;;2.03;1.83;;;21.50;99.90;;;;;;4993821;28;20438;-77
2023/06/22 09:01:05;;;;;;;1.73;1.60;;;21.50;99.90;;;;;;4987970;28;20041;-77
2023/06/22 09:03:34;;;;;;;2.20;1.88;;;21.60;99.90;;;;;;4995960;28;20144;-77
2023/06/22 09:06:02;;;;;;;2.35;2.08;;;21.60;99.90;;;;;;4997009;28;20140;-77
2023/06/22 09:08:29;;;;;;;2.22;2.03;;;21.70;99.90;;;;;;4996470;28;20061;-76
2023/06/22 09:10:55;;;;;;;2.50;2.30;;;21.90;99.90;;;;;;4995749;28;20363;-77
2023/06/22 09:13:22;;;;;;;3.10;2.40;;;21.90;99.90;;;;;;4991527;28;20058;-77
2023/06/22 09:15:49;;;;;;;2.22;2.03;;;22.00;99.90;;;;;;4991507;28;20050;-77
2023/06/22 09:18:16;;;;;;;1.90;1.70;;;22.10;99.90;;;;;;4990877;28;20046;-76
2023/06/22 09:20:43;;;;;;;2.35;1.73;;;22.20;99.90;;;;;;4975324;28;20054;-77
2023/06/22 09:23:10;;;;;;;1.75;1.52;;;22.30;99.90;;;;;;4992227;28;20065;-77
2023/06/22 09:25:36;;;;;;;3.20;1.67;;;22.60;99.90;;;;;;4997064;28;20046;-77
2023/06/22 09:28:03;;;;;;;1.98;1.77;;;22.70;99.90;;;;;;4987582;28;20409;-77
2023/06/22 09:30:30;;;;;;;2.05;1.58;;;22.90;99.90;;;;;;4998327;28;20052;-77
2023/06/22 09:32:57;;;;;;;1.60;1.38;;;23.20;99.90;;;;;;5009943;28;20085;-80
2023/06/22 09:35:24;;;;;;;2.03;1.30;;;23.50;99.90;;;;;;4999312;28;20073;-81
2023/06/22 09:37:51;;;;;;;1.88;1.70;;;23.70;99.90;;;;;;4985471;28;20143;-81
2023/06/22 09:40:21;;;;;;;2.20;1.83;;;23.80;99.90;;;;;;5003331;28;20050;-81
2023/06/22 09:42:48;;;;;;;2.25;1.98;;;23.70;99.90;;;;;;5003047;28;20046;-81
2023/06/22 09:45:15;;;;;;;1.52;1.42;;;23.70;99.90;;;;;;4986190;28;20054;-80
2023/06/22 09:47:42;;;;;;;2.00;1.70;;;23.80;99.90;;;;;;4986430;28;20069;-81
2023/06/22 09:50:09;;;;;;;1.73;1.60;;;24.00;99.90;;;;;;5003683;28;20050;-81
2023/06/22 09:52:36;;;;;;;1.92;1.67;;;24.10;99.90;;;;;;5002932;28;20539;-81
2023/06/22 09:55:06;;;;;;;1.67;1.48;;;24.20;99.90;;;;;;5001360;28;20101;-80
2023/06/22 09:57:33;;;;;;;1.40;1.30;;;24.10;99.90;;;;;;5002985;28;20054;-80
2023/06/22 10:00:00;;;;;;;1.83;1.60;;;24.30;99.90;;;;;;4972462;28;20038;-80
2023/06/22 10:02:27;;;;;;;2.70;2.00;;;24.40;99.90;;;;;;4996017;28;20061;-80
2023/06/22 10:04:54;;;;;;;2.72;1.70;;;24.50;99.90;;;;;;4998851;28;20147;-80
2023/06/22 10:07:21;;;;;;;1.90;1.55;;;24.60;99.90;;;;;;4998417;28;20054;-80
2023/06/22 10:09:48;;;;;;;2.47;1.98;;;24.70;99.90;;;;;;5015940;28;20085;-78
2023/06/22 10:12:15;;;;;;;2.63;1.90;;;24.70;99.90;;;;;;4998242;28;20058;-80
2023/06/22 10:14:41;;;;;;;1.83;1.58;;;24.50;99.90;;;;;;5001266;28;20054;-82
2023/06/22 10:17:09;;;;;;;1.70;1.58;;;24.40;99.90;;;;;;4996714;28;20056;-80
2023/06/22 10:19:37;;;;;;;1.75;1.55;;;24.40;99.90;;;;;;4999845;28;20049;-79
2023/06/22 10:22:05;;;;;;;2.08;1.75;;;24.60;99.90;;;;;;4980164;28;20054;-81
2023/06/22 10:24:31;;;;;;;1.60;1.45;;;24.60;99.90;;;;;;4999342;28;20544;-80
2023/06/22 10:26:58;;;;;;;2.15;1.67;;;24.80;99.90;;;;;;5008994;28;20107;-80
2023/06/22 10:29:25;;;;;;;1.63;1.35;;;24.90;99.90;;;;;;4991471;28;20493;-80
2023/06/22 10:31:52;;;;;;;1.70;1.60;;;25.10;99.90;;;;;;4996708;28;20124;-80
2023/06/22 10:34:19;;;;;;;1.25;1.13;;;25.30;99.90;;;;;;5000485;28;20116;-80
2023/06/22 10:36:48;;;;;;;1.50;1.40;;;25.50;99.90;;;;;;5021736;28;20046;-80
2023/06/22 10:39:15;;;;;;;1.77;1.33;;;26.00;99.90;;;;;;4998625;28;20312;-80
2023/06/22 10:41:42;;;;;;;1.50;1.20;;;26.20;99.90;;;;;;5015761;28;20060;-81
2023/06/22 10:44:09;;;;;;;1.60;1.42;;;26.50;99.90;;;;;;5003331;28;20049;-80
2023/06/22 10:46:35;;;;;;;1.40;1.30;;;26.60;98.90;;;;;;4998447;28;20058;-80
2023/06/22 10:49:02;;;;;;;1.95;1.40;;;26.80;99.80;;;;;;5002920;28;20125;-80
2023/06/22 10:51:30;;;;;;;1.52;1.20;;;27.10;98.60;;;;;;5000199;28;20073;-80
2023/06/22 10:53:57;;;;;;;1.95;1.65;;;27.30;98.50;;;;;;4988241;28;20133;-80
2023/06/22 10:56:24;;;;;;;2.35;1.95;;;27.40;97.90;;;;;;5006567;28;20052;-80
2023/06/22 10:58:51;;;;;;;1.70;1.23;;;27.40;96.80;;;;;;5001993;28;20069;-80
2023/06/22 11:01:17;;;;;;;2.28;1.52;;;27.10;97.10;;;;;;4992320;28;20061;-79
2023/06/22 11:04:01;;;;;;;2.35;1.60;;;26.80;96.60;;;;;;4998918;28;20121;-79
2023/06/22 11:06:28;;;;;;;1.70;1.30;;;26.50;97.00;;;;;;5000800;28;20112;-79
2023/06/22 11:08:55;;;;;;;1.70;1.60;;;26.60;96.30;;;;;;5002599;28;20041;-79
2023/06/22 11:11:32;;;;;;;1.55;1.35;;;26.60;96.80;;;;;;4999206;28;20128;-79
2023/06/22 11:13:59;;;;;;;1.38;1.20;;;26.90;96.00;;;;;;5003151;28;20050;-79
2023/06/22 11:16:26;;;;;;;1.42;1.13;;;27.20;95.70;;;;;;4996296;28;20065;-80
2023/06/22 11:18:52;;;;;;;1.20;1.10;;;27.60;95.40;;;;;;5000953;28;20116;-82
2023/06/22 11:21:19;;;;;;;1.52;1.40;;;27.30;95.10;;;;;;5004597;28;20057;-82
2023/06/22 11:23:46;;;;;;;1.35;1.17;;;27.00;94.90;;;;;;4992851;28;20631;-85
2023/06/22 11:26:13;;;;;;;1.48;1.38;;;26.70;95.80;;;;;;4971809;28;20398;-86
2023/06/22 11:28:39;;;;;;;1.65;1.30;;;26.70;95.90;;;;;;4967259;28;20058;-81
2023/06/22 11:31:07;;;;;;;1.20;1.10;;;26.60;95.20;;;;;;5003524;28;20070;-81
2023/06/22 11:33:51;;;;;;;2.40;1.80;;;26.60;95.40;;;;;;4985343;28;20148;-80
2023/06/22 11:36:19;;;;;;;2.30;1.88;;;26.30;96.00;;;;;;4967845;28;20387;-81
2023/06/22 11:38:46;;;;;;;2.20;1.83;;;26.30;96.20;;;;;;4986693;28;20096;-79
2023/06/22 11:41:13;;;;;;;1.77;1.48;;;26.20;95.10;;;;;;4997284;28;20053;-81
2023/06/22 11:43:40;;;;;;;1.70;1.38;;;26.80;94.40;;;;;;5002798;28;20448;-80
2023/06/22 11:46:07;;;;;;;1.70;1.40;;;27.30;95.00;;;;;;5004169;28;20037;-81
2023/06/22 11:48:34;;;;;;;1.48;1.35;;;27.80;94.40;;;;;;5008443;28;20053;-81
2023/06/22 11:51:02;;;;;;;2.13;1.50;;;28.20;94.80;;;;;;5003771;28;20453;-81
2023/06/22 11:53:29;;;;;;;1.58;1.48;;;28.50;93.30;;;;;;5003634;28;20144;-80
2023/06/22 11:55:56;;;;;;;1.40;1.30;;;28.60;92.90;;;;;;4988050;28;20485;-80
2023/06/22 11:58:23;;;;;;;2.08;1.60;;;29.20;92.20;;;;;;5004564;28;20054;-80
2023/06/22 12:00:51;;;;;;;1.95;1.60;;;29.60;91.90;;;;;;5003961;28;20916;-80
2023/06/22 12:03:19;;;;;;;2.13;1.92;;;29.90;92.30;;;;;;5003913;28;20069;-80
2023/06/22 12:05:46;;;;;;;1.40;1.30;;;30.20;90.50;;;;;;5003345;28;20054;-81
2023/06/22 12:08:13;;;;;;;1.50;1.38;;;30.30;90.90;;;;;;5004886;28;20042;-81
2023/06/22 12:10:40;;;;;;;1.30;1.20;;;30.70;90.00;;;;;;4971272;28;20054;-79
2023/06/22 12:13:07;;;;;;;1.40;1.30;;;31.20;90.00;;;;;;5003241;28;20054;-79
2023/06/22 12:15:34;;;;;;;1.73;1.40;;;31.60;89.90;;;;;;4986923;28;20072;-79
2023/06/22 12:18:01;;;;;;;1.52;1.30;;;32.20;89.10;;;;;;4968513;28;20045;-80
2023/06/22 12:20:28;;;;;;;2.15;1.13;;;32.20;88.10;;;;;;5001204;28;20045;-82
2023/06/22 12:22:58;;;;;;;1.50;1.40;;;31.60;87.50;;;;;;5001737;28;20128;-80
2023/06/22 12:25:25;;;;;;;2.08;1.52;;;31.10;88.70;;;;;;4980671;28;20049;-81
2023/06/22 12:27:52;;;;;;;2.63;1.92;;;30.60;88.50;;;;;;4989328;28;20108;-81
2023/06/22 12:30:18;;;;;;;2.28;1.70;;;30.00;88.10;;;;;;5000796;28;20100;-81
2023/06/22 12:32:45;;;;;;;1.88;1.67;;;29.60;89.90;;;;;;5001171;28;20197;-81
2023/06/22 12:35:13;;;;;;;2.00;1.60;;;29.40;90.30;;;;;;5002085;28;20053;-81
2023/06/22 12:37:44;;;;;;;2.97;1.75;;;29.10;89.20;;;;;;5003270;28;20072;-81
2023/06/22 12:40:11;;;;;;;2.22;1.70;;;29.00;89.50;;;;;;5003496;28;20471;-80
2023/06/22 12:42:37;;;;;;;2.13;1.70;;;29.80;88.50;;;;;;5004793;28;20057;-81
2023/06/22 12:45:05;;;;;;;1.63;1.48;;;30.40;88.60;;;;;;5003851;28;20083;-81
2023/06/22 12:47:32;;;;;;;1.73;1.60;;;31.00;88.30;;;;;;4994798;28;20497;-81
2023/06/22 12:49:58;;;;;;;1.75;1.40;;;31.50;88.50;;;;;;4989316;28;20058;-80
2023/06/22 12:52:25;;;;;;;1.42;1.33;;;32.00;85.40;;;;;;4996933;28;20053;-81